PWSweather.com
Personal Weather Stations
Station Observations
IMAZOWIE6
WarszawaPL

WarszawaPL

Lat: 52.27957, Lon: 21.05489

Elevation: 100

Station Type: WS1080

http://stacjapogody.waw.pl/

High Low Average
Temperature 39.9°F4.4°C 33.1°F0.6°C 36.2°F2.3°C
Dew Point 14.1°F-9.9°C -169.1°F-111.7°C -3.4°F-19.7°C
Winds 4.0 mph 6.4 kmh 0.6 mph 1.0 kmh 2.0 mph N3.2 kmh N
Wind Gusts 7.4 mph11.9 kmh 2.0 mph3.2 kmh 4.0 mph6.4 kmh
Humidity 37% 10% 26%
Pressure 29.73 in1006.8 mb 29.46 in997.6 mb -
Precipitation 0.00 in0.0 mm - -
Hour Temp Dew Point Humidity Winds Wind Gusts Pressure Precip Precip Rate Daily Precip Total
12:03 AM 33.6°F0.9°C -2.4°F-19.1°C 21% 2.0 mph N3.2 kmh N 5.4 mph8.7 kmh 29.73 in1006.8 mb 0.00 in0.0 mm 0.00 in0.0 mm 0.00 in0.0 mm
12:18 AM 34.5°F1.4°C -1.6°F-18.7°C 21% 1.4 mph N2.3 kmh N 4.0 mph6.4 kmh 29.73 in1006.8 mb 0.00 in0.0 mm 0.00 in0.0 mm 0.00 in0.0 mm
12:33 AM 34.2°F1.2°C -2.9°F-19.4°C 20% 1.4 mph N2.3 kmh N 2.8 mph4.5 kmh 29.72 in1006.4 mb 0.00 in0.0 mm 0.00 in0.0 mm 0.00 in0.0 mm
12:48 AM 33.6°F0.9°C -3.4°F-19.7°C 20% 1.4 mph N2.3 kmh N 3.4 mph5.5 kmh 29.72 in1006.4 mb 0.00 in0.0 mm 0.00 in0.0 mm 0.00 in0.0 mm
01:03 AM 33.3°F0.7°C -2.7°F-19.3°C 21% 2.0 mph N3.2 kmh N 3.4 mph5.5 kmh 29.71 in1006.1 mb 0.00 in0.0 mm 0.00 in0.0 mm 0.00 in0.0 mm
01:18 AM 33.3°F0.7°C -2.7°F-19.3°C 21% 3.4 mph N5.5 kmh N 6.2 mph10.0 kmh 29.71 in1006.1 mb 0.00 in0.0 mm 0.00 in0.0 mm 0.00 in0.0 mm
01:33 AM 33.3°F0.7°C -2.7°F-19.3°C 21% 2.0 mph N3.2 kmh N 4.8 mph7.7 kmh 29.71 in1006.1 mb 0.00 in0.0 mm 0.00 in0.0 mm 0.00 in0.0 mm
01:48 AM 33.4°F0.8°C -2.5°F-19.2°C 21% 2.8 mph N4.5 kmh N 5.4 mph8.7 kmh 29.70 in1005.8 mb 0.00 in0.0 mm 0.00 in0.0 mm 0.00 in0.0 mm
02:03 AM 33.6°F0.9°C -2.4°F-19.1°C 21% 2.8 mph N4.5 kmh N 4.8 mph7.7 kmh 29.70 in1005.8 mb 0.00 in0.0 mm 0.00 in0.0 mm 0.00 in0.0 mm
02:18 AM 33.6°F0.9°C -3.4°F-19.7°C 20% 2.0 mph N3.2 kmh N 3.4 mph5.5 kmh 29.69 in1005.4 mb 0.00 in0.0 mm 0.00 in0.0 mm 0.00 in0.0 mm
02:33 AM 33.4°F0.8°C -3.5°F-19.7°C 20% 2.8 mph N4.5 kmh N 5.4 mph8.7 kmh 29.69 in1005.4 mb 0.00 in0.0 mm 0.00 in0.0 mm 0.00 in0.0 mm
02:48 AM 33.4°F0.8°C -3.5°F-19.7°C 20% 2.0 mph N3.2 kmh N 3.4 mph5.5 kmh 29.68 in1005.1 mb 0.00 in0.0 mm 0.00 in0.0 mm 0.00 in0.0 mm
03:03 AM 33.8°F1.0°C -3.2°F-19.6°C 20% 2.0 mph N3.2 kmh N 4.0 mph6.4 kmh 29.68 in1005.1 mb 0.00 in0.0 mm 0.00 in0.0 mm 0.00 in0.0 mm
03:18 AM 33.6°F0.9°C -3.4°F-19.7°C 20% 1.4 mph N2.3 kmh N 3.4 mph5.5 kmh 29.68 in1005.1 mb 0.00 in0.0 mm 0.00 in0.0 mm 0.00 in0.0 mm
03:33 AM 34.0°F1.1°C -3.1°F-19.5°C 20% 1.4 mph N2.3 kmh N 4.0 mph6.4 kmh 29.68 in1005.1 mb 0.00 in0.0 mm 0.00 in0.0 mm 0.00 in0.0 mm
03:48 AM 34.0°F1.1°C -3.1°F-19.5°C 20% 2.8 mph N4.5 kmh N 6.2 mph10.0 kmh 29.67 in1004.7 mb 0.00 in0.0 mm 0.00 in0.0 mm 0.00 in0.0 mm
04:03 AM 33.6°F0.9°C -3.4°F-19.7°C 20% 0.6 mph N1.0 kmh N 2.0 mph3.2 kmh 29.67 in1004.7 mb 0.00 in0.0 mm 0.00 in0.0 mm 0.00 in0.0 mm
04:18 AM 33.8°F1.0°C -3.2°F-19.6°C 20% 2.0 mph N3.2 kmh N 4.0 mph6.4 kmh 29.67 in1004.7 mb 0.00 in0.0 mm 0.00 in0.0 mm 0.00 in0.0 mm
04:33 AM 33.8°F1.0°C -2.2°F-19.0°C 21% 1.4 mph N2.3 kmh N 3.4 mph5.5 kmh 29.66 in1004.4 mb 0.00 in0.0 mm 0.00 in0.0 mm 0.00 in0.0 mm
04:48 AM 33.8°F1.0°C -2.2°F-19.0°C 21% 2.0 mph N3.2 kmh N 3.4 mph5.5 kmh 29.66 in1004.4 mb 0.00 in0.0 mm 0.00 in0.0 mm 0.00 in0.0 mm
05:03 AM 34.2°F1.2°C -1.9°F-18.8°C 21% 1.4 mph N2.3 kmh N 6.2 mph10.0 kmh 29.66 in1004.4 mb 0.00 in0.0 mm 0.00 in0.0 mm 0.00 in0.0 mm
05:18 AM 34.2°F1.2°C -0.9°F-18.3°C 22% 1.4 mph N2.3 kmh N 3.4 mph5.5 kmh 29.66 in1004.4 mb 0.00 in0.0 mm 0.00 in0.0 mm 0.00 in0.0 mm
05:33 AM 34.3°F1.3°C -0.8°F-18.2°C 22% 2.8 mph N4.5 kmh N 4.8 mph7.7 kmh 29.67 in1004.7 mb 0.00 in0.0 mm 0.00 in0.0 mm 0.00 in0.0 mm
05:48 AM 34.3°F1.3°C 0.2°F-17.7°C 23% 2.8 mph N4.5 kmh N 5.4 mph8.7 kmh 29.66 in1004.4 mb 0.00 in0.0 mm 0.00 in0.0 mm 0.00 in0.0 mm
06:03 AM 34.3°F1.3°C 0.2°F-17.7°C 23% 3.4 mph N5.5 kmh N 6.2 mph10.0 kmh 29.66 in1004.4 mb 0.00 in0.0 mm 0.00 in0.0 mm 0.00 in0.0 mm
06:18 AM 34.2°F1.2°C 0.9°F-17.3°C 24% 2.0 mph N3.2 kmh N 4.8 mph7.7 kmh 29.66 in1004.4 mb 0.00 in0.0 mm 0.00 in0.0 mm 0.00 in0.0 mm
06:33 AM 34.0°F1.1°C 0.8°F-17.3°C 24% 2.8 mph N4.5 kmh N 5.4 mph8.7 kmh 29.65 in1004.1 mb 0.00 in0.0 mm 0.00 in0.0 mm 0.00 in0.0 mm
06:48 AM 33.8°F1.0°C 0.6°F-17.4°C 24% 1.4 mph N2.3 kmh N 4.0 mph6.4 kmh 29.65 in1004.1 mb 0.00 in0.0 mm 0.00 in0.0 mm 0.00 in0.0 mm
07:03 AM 33.6°F0.9°C 1.3°F-17.1°C 25% 2.8 mph N4.5 kmh N 5.4 mph8.7 kmh 29.65 in1004.1 mb 0.00 in0.0 mm 0.00 in0.0 mm 0.00 in0.0 mm
07:18 AM 33.4°F0.8°C 1.2°F-17.1°C 25% 1.4 mph N2.3 kmh N 4.0 mph6.4 kmh 29.65 in1004.1 mb 0.00 in0.0 mm 0.00 in0.0 mm 0.00 in0.0 mm
07:33 AM 33.4°F0.8°C 2.0°F-16.7°C 26% 2.8 mph N4.5 kmh N 5.4 mph8.7 kmh 29.65 in1004.1 mb 0.00 in0.0 mm 0.00 in0.0 mm 0.00 in0.0 mm
07:48 AM 33.1°F0.6°C 2.5°F-16.4°C 27% 2.0 mph N3.2 kmh N 4.8 mph7.7 kmh 29.65 in1004.1 mb 0.00 in0.0 mm 0.00 in0.0 mm 0.00 in0.0 mm
08:03 AM 33.3°F0.7°C 3.4°F-15.9°C 28% 0.6 mph N1.0 kmh N 2.0 mph3.2 kmh 29.65 in1004.1 mb 0.00 in0.0 mm 0.00 in0.0 mm 0.00 in0.0 mm
08:18 AM 33.4°F0.8°C 4.4°F-15.3°C 29% 2.0 mph N3.2 kmh N 4.0 mph6.4 kmh 29.65 in1004.1 mb 0.00 in0.0 mm 0.00 in0.0 mm 0.00 in0.0 mm
08:33 AM 33.6°F0.9°C 5.2°F-14.9°C 30% 1.4 mph N2.3 kmh N 4.0 mph6.4 kmh 29.65 in1004.1 mb 0.00 in0.0 mm 0.00 in0.0 mm 0.00 in0.0 mm
08:48 AM 34.0°F1.1°C 5.6°F-14.7°C 30% 1.4 mph N2.3 kmh N 3.4 mph5.5 kmh 29.64 in1003.7 mb 0.00 in0.0 mm 0.00 in0.0 mm 0.00 in0.0 mm
09:03 AM 34.3°F1.3°C 6.6°F-14.1°C 31% 2.0 mph N3.2 kmh N 4.8 mph7.7 kmh 29.64 in1003.7 mb 0.00 in0.0 mm 0.00 in0.0 mm 0.00 in0.0 mm
09:18 AM 34.5°F1.4°C 7.5°F-13.6°C 32% 1.4 mph N2.3 kmh N 3.4 mph5.5 kmh 29.63 in1003.4 mb 0.00 in0.0 mm 0.00 in0.0 mm 0.00 in0.0 mm
09:33 AM 34.9°F1.6°C 7.8°F-13.4°C 32% 1.4 mph N2.3 kmh N 2.8 mph4.5 kmh 29.63 in1003.4 mb 0.00 in0.0 mm 0.00 in0.0 mm 0.00 in0.0 mm
09:48 AM 35.2°F1.8°C 8.8°F-12.9°C 33% 2.0 mph N3.2 kmh N 5.4 mph8.7 kmh 29.63 in1003.4 mb 0.00 in0.0 mm 0.00 in0.0 mm 0.00 in0.0 mm
10:03 AM 35.6°F2.0°C 9.8°F-12.3°C 34% 1.4 mph N2.3 kmh N 2.8 mph4.5 kmh 29.62 in1003.0 mb 0.00 in0.0 mm 0.00 in0.0 mm 0.00 in0.0 mm
10:18 AM 36.0°F2.2°C 10.1°F-12.2°C 34% 1.4 mph N2.3 kmh N 4.0 mph6.4 kmh 29.62 in1003.0 mb 0.00 in0.0 mm 0.00 in0.0 mm 0.00 in0.0 mm
10:33 AM 36.3°F2.4°C 11.0°F-11.7°C 35% 1.4 mph N2.3 kmh N 2.8 mph4.5 kmh 29.62 in1003.0 mb 0.00 in0.0 mm 0.00 in0.0 mm 0.00 in0.0 mm
10:48 AM 36.3°F2.4°C 11.0°F-11.7°C 35% 2.0 mph N3.2 kmh N 4.0 mph6.4 kmh 29.61 in1002.7 mb 0.00 in0.0 mm 0.00 in0.0 mm 0.00 in0.0 mm
11:03 AM 36.5°F2.5°C 11.8°F-11.2°C 36% 2.8 mph N4.5 kmh N 4.8 mph7.7 kmh 29.60 in1002.4 mb 0.00 in0.0 mm 0.00 in0.0 mm 0.00 in0.0 mm
11:18 AM 36.9°F2.7°C 12.2°F-11.0°C 36% 1.4 mph N2.3 kmh N 2.8 mph4.5 kmh 29.60 in1002.4 mb 0.00 in0.0 mm 0.00 in0.0 mm 0.00 in0.0 mm
11:33 AM 37.0°F2.8°C 12.3°F-10.9°C 36% 2.8 mph N4.5 kmh N 4.8 mph7.7 kmh 29.59 in1002.0 mb 0.00 in0.0 mm 0.00 in0.0 mm 0.00 in0.0 mm
11:48 AM 37.0°F2.8°C 12.9°F-10.6°C 37% 2.0 mph N3.2 kmh N 6.2 mph10.0 kmh 29.59 in1002.0 mb 0.00 in0.0 mm 0.00 in0.0 mm 0.00 in0.0 mm
12:03 PM 37.2°F2.9°C 13.1°F-10.5°C 37% 1.4 mph N2.3 kmh N 2.8 mph4.5 kmh 29.58 in1001.7 mb 0.00 in0.0 mm 0.00 in0.0 mm 0.00 in0.0 mm
12:18 PM 37.6°F3.1°C 13.4°F-10.3°C 37% 1.4 mph N2.3 kmh N 3.4 mph5.5 kmh 29.57 in1001.4 mb 0.00 in0.0 mm 0.00 in0.0 mm 0.00 in0.0 mm
12:33 PM 38.1°F3.4°C 13.9°F-10.1°C 37% 2.0 mph N3.2 kmh N 4.0 mph6.4 kmh 29.58 in1001.7 mb 0.00 in0.0 mm 0.00 in0.0 mm 0.00 in0.0 mm
12:48 PM 38.1°F3.4°C 13.9°F-10.1°C 37% 2.0 mph N3.2 kmh N 4.0 mph6.4 kmh 29.57 in1001.4 mb 0.00 in0.0 mm 0.00 in0.0 mm 0.00 in0.0 mm
01:03 PM 38.1°F3.4°C 13.9°F-10.1°C 37% 2.8 mph N4.5 kmh N 6.2 mph10.0 kmh 29.57 in1001.4 mb 0.00 in0.0 mm 0.00 in0.0 mm 0.00 in0.0 mm
01:18 PM 38.3°F3.5°C 14.1°F-9.9°C 37% 2.0 mph N3.2 kmh N 4.0 mph6.4 kmh 29.57 in1001.4 mb 0.00 in0.0 mm 0.00 in0.0 mm 0.00 in0.0 mm
01:33 PM 38.7°F3.7°C 13.8°F-10.1°C 36% 3.4 mph N5.5 kmh N 6.2 mph10.0 kmh 29.57 in1001.4 mb 0.00 in0.0 mm 0.00 in0.0 mm 0.00 in0.0 mm
01:48 PM 38.8°F3.8°C 13.9°F-10.1°C 36% 2.0 mph N3.2 kmh N 4.0 mph6.4 kmh 29.56 in1001.0 mb 0.00 in0.0 mm 0.00 in0.0 mm 0.00 in0.0 mm
02:03 PM 39.0°F3.9°C 14.1°F-9.9°C 36% 1.4 mph N2.3 kmh N 4.0 mph6.4 kmh 29.56 in1001.0 mb 0.00 in0.0 mm 0.00 in0.0 mm 0.00 in0.0 mm
02:18 PM 39.2°F4.0°C 13.6°F-10.2°C 35% 2.0 mph N3.2 kmh N 3.4 mph5.5 kmh 29.56 in1001.0 mb 0.00 in0.0 mm 0.00 in0.0 mm 0.00 in0.0 mm
02:33 PM 39.4°F4.1°C 13.8°F-10.1°C 35% 2.0 mph N3.2 kmh N 3.4 mph5.5 kmh 29.56 in1001.0 mb 0.00 in0.0 mm 0.00 in0.0 mm 0.00 in0.0 mm
02:48 PM 39.4°F4.1°C 13.1°F-10.5°C 34% 1.4 mph N2.3 kmh N 2.8 mph4.5 kmh 29.56 in1001.0 mb 0.00 in0.0 mm 0.00 in0.0 mm 0.00 in0.0 mm
03:03 PM 39.6°F4.2°C 13.3°F-10.4°C 34% 1.4 mph N2.3 kmh N 3.4 mph5.5 kmh 29.55 in1000.7 mb 0.00 in0.0 mm 0.00 in0.0 mm 0.00 in0.0 mm
03:18 PM 39.6°F4.2°C 12.6°F-10.8°C 33% 2.0 mph N3.2 kmh N 4.8 mph7.7 kmh 29.55 in1000.7 mb 0.00 in0.0 mm 0.00 in0.0 mm 0.00 in0.0 mm
03:33 PM 39.6°F4.2°C 11.9°F-11.2°C 32% 2.0 mph N3.2 kmh N 4.8 mph7.7 kmh 29.55 in1000.7 mb 0.00 in0.0 mm 0.00 in0.0 mm 0.00 in0.0 mm
03:48 PM 39.7°F4.3°C 12.1°F-11.1°C 32% 1.4 mph N2.3 kmh N 3.4 mph5.5 kmh 29.55 in1000.7 mb 0.00 in0.0 mm 0.00 in0.0 mm 0.00 in0.0 mm
04:03 PM 39.7°F4.3°C 11.3°F-11.5°C 31% 2.0 mph N3.2 kmh N 3.4 mph5.5 kmh 29.55 in1000.7 mb 0.00 in0.0 mm 0.00 in0.0 mm 0.00 in0.0 mm
04:18 PM 39.9°F4.4°C 10.8°F-11.8°C 30% 1.4 mph N2.3 kmh N 3.4 mph5.5 kmh 29.54 in1000.3 mb 0.00 in0.0 mm 0.00 in0.0 mm 0.00 in0.0 mm
04:33 PM 39.9°F4.4°C 10.8°F-11.8°C 30% 1.4 mph N2.3 kmh N 3.4 mph5.5 kmh 29.54 in1000.3 mb 0.00 in0.0 mm 0.00 in0.0 mm 0.00 in0.0 mm
04:48 PM 39.9°F4.4°C 10.0°F-12.2°C 29% 2.0 mph N3.2 kmh N 4.0 mph6.4 kmh 29.54 in1000.3 mb 0.00 in0.0 mm 0.00 in0.0 mm 0.00 in0.0 mm
05:03 PM 39.9°F4.4°C 9.2°F-12.7°C 28% 2.8 mph N4.5 kmh N 5.4 mph8.7 kmh 29.53 in1000.0 mb 0.00 in0.0 mm 0.00 in0.0 mm 0.00 in0.0 mm
05:18 PM 39.7°F4.3°C 8.3°F-13.2°C 27% 2.0 mph N3.2 kmh N 4.8 mph7.7 kmh 29.54 in1000.3 mb 0.00 in0.0 mm 0.00 in0.0 mm 0.00 in0.0 mm
05:33 PM 39.6°F4.2°C 8.1°F-13.3°C 27% 2.8 mph N4.5 kmh N 4.8 mph7.7 kmh 29.53 in1000.0 mb 0.00 in0.0 mm 0.00 in0.0 mm 0.00 in0.0 mm
05:48 PM 38.8°F3.8°C 6.6°F-14.1°C 26% 1.4 mph N2.3 kmh N 3.4 mph5.5 kmh 29.53 in1000.0 mb 0.00 in0.0 mm 0.00 in0.0 mm 0.00 in0.0 mm
06:03 PM 38.1°F3.4°C 6.0°F-14.4°C 26% 2.0 mph N3.2 kmh N 4.8 mph7.7 kmh 29.53 in1000.0 mb 0.00 in0.0 mm 0.00 in0.0 mm 0.00 in0.0 mm
06:18 PM 37.9°F3.3°C 5.9°F-14.5°C 26% 2.0 mph N3.2 kmh N 6.2 mph10.0 kmh 29.53 in1000.0 mb 0.00 in0.0 mm 0.00 in0.0 mm 0.00 in0.0 mm
06:33 PM 37.9°F3.3°C 5.9°F-14.5°C 26% 1.4 mph N2.3 kmh N 3.4 mph5.5 kmh 29.52 in999.7 mb 0.00 in0.0 mm 0.00 in0.0 mm 0.00 in0.0 mm
06:48 PM 37.9°F3.3°C 5.9°F-14.5°C 26% 1.4 mph N2.3 kmh N 3.4 mph5.5 kmh 29.52 in999.7 mb 0.00 in0.0 mm 0.00 in0.0 mm 0.00 in0.0 mm
07:03 PM 37.9°F3.3°C 5.9°F-14.5°C 26% 3.4 mph N5.5 kmh N 6.8 mph10.9 kmh 29.52 in999.7 mb 0.00 in0.0 mm 0.00 in0.0 mm 0.00 in0.0 mm
07:18 PM 38.1°F3.4°C 5.2°F-14.9°C 25% 4.0 mph N6.4 kmh N 6.8 mph10.9 kmh 29.51 in999.3 mb 0.00 in0.0 mm 0.00 in0.0 mm 0.00 in0.0 mm
07:33 PM 37.6°F3.1°C 4.7°F-15.2°C 25% 2.8 mph N4.5 kmh N 4.0 mph6.4 kmh 29.51 in999.3 mb 0.00 in0.0 mm 0.00 in0.0 mm 0.00 in0.0 mm
07:48 PM 37.6°F3.1°C 3.8°F-15.7°C 24% 3.4 mph N5.5 kmh N 6.2 mph10.0 kmh 29.50 in999.0 mb 0.00 in0.0 mm 0.00 in0.0 mm 0.00 in0.0 mm
08:03 PM 37.2°F2.9°C 1.6°F-16.9°C 22% 4.0 mph N6.4 kmh N 7.4 mph11.9 kmh 29.49 in998.6 mb 0.00 in0.0 mm 0.00 in0.0 mm 0.00 in0.0 mm
08:18 PM 37.0°F2.8°C 0.5°F-17.5°C 21% 2.0 mph N3.2 kmh N 4.0 mph6.4 kmh 29.49 in998.6 mb 0.00 in0.0 mm 0.00 in0.0 mm 0.00 in0.0 mm
08:33 PM 36.7°F2.6°C -1.9°F-18.8°C 19% 3.4 mph N5.5 kmh N 6.8 mph10.9 kmh 29.49 in998.6 mb 0.00 in0.0 mm 0.00 in0.0 mm 0.00 in0.0 mm
08:48 PM 36.7°F2.6°C -3.0°F-19.4°C 18% 2.0 mph N3.2 kmh N 3.4 mph5.5 kmh 29.48 in998.3 mb 0.00 in0.0 mm 0.00 in0.0 mm 0.00 in0.0 mm
09:03 PM 36.1°F2.3°C -4.7°F-20.4°C 17% 1.4 mph N2.3 kmh N 3.4 mph5.5 kmh 29.49 in998.6 mb 0.00 in0.0 mm 0.00 in0.0 mm 0.00 in0.0 mm
09:18 PM 36.0°F2.2°C -4.8°F-20.4°C 17% 2.0 mph N3.2 kmh N 4.8 mph7.7 kmh 29.49 in998.6 mb 0.00 in0.0 mm 0.00 in0.0 mm 0.00 in0.0 mm
09:33 PM 36.1°F2.3°C -5.9°F-21.1°C 16% 2.8 mph N4.5 kmh N 4.8 mph7.7 kmh 29.49 in998.6 mb 0.00 in0.0 mm 0.00 in0.0 mm 0.00 in0.0 mm
09:48 PM 36.1°F2.3°C -7.2°F-21.8°C 15% 3.4 mph N5.5 kmh N 6.2 mph10.0 kmh 29.49 in998.6 mb 0.00 in0.0 mm 0.00 in0.0 mm 0.00 in0.0 mm
10:03 PM 36.3°F2.4°C -8.5°F-22.5°C 14% 1.4 mph N2.3 kmh N 5.4 mph8.7 kmh 29.48 in998.3 mb 0.00 in0.0 mm 0.00 in0.0 mm 0.00 in0.0 mm
10:18 PM 36.5°F2.5°C -9.8°F-23.2°C 13% 2.0 mph N3.2 kmh N 4.0 mph6.4 kmh 29.48 in998.3 mb 0.00 in0.0 mm 0.00 in0.0 mm 0.00 in0.0 mm
10:33 PM 36.7°F2.6°C -12.9°F-24.9°C 11% 2.8 mph N4.5 kmh N 4.0 mph6.4 kmh 29.48 in998.3 mb 0.00 in0.0 mm 0.00 in0.0 mm 0.00 in0.0 mm
10:48 PM 36.7°F2.6°C -14.8°F-26.0°C 10% 0.6 mph N1.0 kmh N 3.4 mph5.5 kmh 29.47 in998.0 mb 0.00 in0.0 mm 0.00 in0.0 mm 0.00 in0.0 mm
11:03 PM 36.9°F2.7°C -169.1°F-111.7°C - 2.0 mph N3.2 kmh N 4.8 mph7.7 kmh 29.47 in998.0 mb 0.00 in0.0 mm 0.00 in0.0 mm 0.00 in0.0 mm
11:19 PM 37.0°F2.8°C -169.1°F-111.7°C - 2.8 mph N4.5 kmh N 4.0 mph6.4 kmh 29.46 in997.6 mb 0.00 in0.0 mm 0.00 in0.0 mm 0.00 in0.0 mm
11:34 PM 37.0°F2.8°C -169.1°F-111.7°C - 2.8 mph N4.5 kmh N 5.4 mph8.7 kmh 29.46 in997.6 mb 0.00 in0.0 mm 0.00 in0.0 mm 0.00 in0.0 mm
11:49 PM 37.0°F2.8°C -169.1°F-111.7°C - 2.8 mph N4.5 kmh N 5.4 mph8.7 kmh 29.46 in997.6 mb 0.00 in0.0 mm 0.00 in0.0 mm 0.00 in0.0 mm